createdAt,value
2018-12-27T00:00:17.209Z,99.96
2018-12-27T00:01:17.203Z,99.96
2018-12-27T00:02:17.188Z,99.99
2018-12-27T00:03:17.236Z,99.99
2018-12-27T00:04:17.171Z,99.99
2018-12-27T00:05:17.158Z,99.99
2018-12-27T00:06:17.163Z,99.96
2018-12-27T00:07:17.157Z,99.91
2018-12-27T00:08:17.145Z,99.96
2018-12-27T00:09:17.174Z,99.91
2018-12-27T00:10:17.124Z,99.99
2018-12-27T00:11:17.174Z,99.99
2018-12-27T00:12:17.087Z,99.85
2018-12-27T00:13:17.118Z,99.99
2018-12-27T00:14:17.074Z,99.99
2018-12-27T00:15:17.072Z,99.99
2018-12-27T00:16:17.040Z,99.99
2018-12-27T00:17:17.037Z,99.96
2018-12-27T00:18:17.078Z,99.99
2018-12-27T00:19:17.032Z,99.99
2018-12-27T00:20:16.998Z,99.99
2018-12-27T00:21:17.062Z,99.99
2018-12-27T00:22:16.981Z,99.99
2018-12-27T00:23:16.971Z,99.60
2018-12-27T00:24:17.026Z,99.85
2018-12-27T00:25:16.946Z,99.99
2018-12-27T00:26:16.936Z,99.99
2018-12-27T00:27:16.965Z,99.99
2018-12-27T00:28:16.956Z,99.85
2018-12-27T00:29:16.918Z,99.99
2018-12-27T00:30:16.916Z,99.99
2018-12-27T00:31:16.884Z,99.96
2018-12-27T00:32:16.877Z,99.96
2018-12-27T00:33:16.868Z,99.91
2018-12-27T00:34:16.898Z,99.80
2018-12-27T00:35:16.844Z,99.99
2018-12-27T00:36:16.846Z,99.91
2018-12-27T00:37:16.832Z,99.99
2018-12-27T00:38:16.845Z,99.91
2018-12-27T00:39:16.827Z,99.91
2018-12-27T00:40:16.827Z,99.80
2018-12-27T00:41:16.779Z,99.99
2018-12-27T00:42:16.771Z,99.99
2018-12-27T00:43:16.761Z,99.99
2018-12-27T00:44:16.767Z,99.99
2018-12-27T00:45:16.756Z,99.99
2018-12-27T00:46:16.729Z,99.91
2018-12-27T00:47:16.717Z,99.80
2018-12-27T00:48:16.710Z,99.74
2018-12-27T00:49:16.711Z,99.96
2018-12-27T00:50:16.747Z,99.38
2018-12-27T00:51:16.679Z,99.99
2018-12-27T00:52:16.692Z,99.74
2018-12-27T00:53:16.665Z,99.99
2018-12-27T00:54:16.680Z,99.99
2018-12-27T00:55:16.636Z,99.99
2018-12-27T00:56:16.658Z,99.99
2018-12-27T00:57:16.613Z,99.99
2018-12-27T00:58:16.625Z,99.99
2018-12-27T00:59:16.608Z,99.99
2018-12-27T01:00:16.597Z,99.99
2018-12-27T01:01:16.578Z,99.96
2018-12-27T01:02:16.564Z,99.74
2018-12-27T01:03:16.562Z,99.96
2018-12-27T01:04:16.558Z,99.99
2018-12-27T01:05:16.528Z,99.99
2018-12-27T01:06:16.578Z,99.99
2018-12-27T01:07:16.516Z,99.99
2018-12-27T01:08:16.507Z,99.99
2018-12-27T01:09:16.503Z,99.74
2018-12-27T01:10:16.493Z,99.99
2018-12-27T01:11:16.468Z,99.99
2018-12-27T01:12:16.455Z,99.99
2018-12-27T01:13:16.472Z,99.99
2018-12-27T01:14:16.447Z,99.99
2018-12-27T01:15:16.426Z,99.99
2018-12-27T01:16:16.426Z,99.99
2018-12-27T01:17:16.433Z,99.99
2018-12-27T01:18:16.393Z,99.85
2018-12-27T01:19:16.409Z,99.99
2018-12-27T01:20:16.374Z,99.99
2018-12-27T01:21:16.362Z,99.99
2018-12-27T01:22:16.394Z,99.99
2018-12-27T01:23:16.343Z,99.99
2018-12-27T01:24:16.341Z,99.99
2018-12-27T01:25:16.342Z,99.99
2018-12-27T01:26:16.316Z,99.99
2018-12-27T01:27:16.302Z,99.99
2018-12-27T01:28:16.313Z,99.85
2018-12-27T01:29:16.277Z,99.99
2018-12-27T01:30:16.283Z,99.80
2018-12-27T01:31:16.283Z,99.99
2018-12-27T01:32:16.266Z,99.99
2018-12-27T01:33:18.879Z,99.99
2018-12-27T01:34:16.269Z,99.99
2018-12-27T01:35:16.232Z,99.99
2018-12-27T01:36:16.203Z,99.70
2018-12-27T01:37:16.195Z,99.91
2018-12-27T01:38:16.186Z,99.43
2018-12-27T01:39:16.179Z,99.33
2018-12-27T01:40:16.178Z,99.28
2018-12-27T01:41:16.193Z,99.07
2018-12-27T01:42:16.142Z,99.01
2018-12-27T01:43:16.138Z,99.07
2018-12-27T01:44:16.141Z,99.28
2018-12-27T01:45:16.126Z,99.33
2018-12-27T01:46:16.106Z,99.11
2018-12-27T01:47:16.092Z,99.43
2018-12-27T01:48:16.078Z,99.33
2018-12-27T01:49:16.126Z,99.11
2018-12-27T01:50:16.071Z,99.11
2018-12-27T01:51:16.048Z,99.33
2018-12-27T01:52:16.038Z,99.33
2018-12-27T01:53:16.029Z,99.01
2018-12-27T01:54:16.022Z,99.22
2018-12-27T01:55:16.021Z,99.64
2018-12-27T01:56:15.995Z,99.33
2018-12-27T01:57:16.007Z,99.22
2018-12-27T01:58:15.978Z,99.22
2018-12-27T01:59:15.967Z,99.11
2018-12-27T02:00:15.969Z,99.43
2018-12-27T02:01:15.943Z,99.69
2018-12-27T02:02:15.944Z,99.54
2018-12-27T02:03:15.924Z,99.33
2018-12-27T02:04:15.913Z,99.58
2018-12-27T02:05:15.948Z,99.22
2018-12-27T02:06:15.891Z,99.37
2018-12-27T02:07:15.881Z,99.22
2018-12-27T02:08:15.869Z,99.27
2018-12-27T02:09:15.859Z,99.37
2018-12-27T02:10:15.896Z,99.74
2018-12-27T02:11:15.839Z,99.43
2018-12-27T02:12:15.865Z,99.43
2018-12-27T02:13:15.823Z,99.58
2018-12-27T02:14:15.823Z,99.85
2018-12-27T02:15:15.824Z,99.22
2018-12-27T02:16:15.825Z,99.01
2018-12-27T02:17:15.783Z,99.79
2018-12-27T02:18:15.770Z,99.54
2018-12-27T02:19:15.755Z,99.85
2018-12-27T02:20:15.746Z,99.90
2018-12-27T02:21:15.752Z,99.99
2018-12-27T02:22:15.735Z,99.99
2018-12-27T02:23:15.737Z,99.99
2018-12-27T02:24:15.712Z,99.79
2018-12-27T02:25:15.707Z,99.99
2018-12-27T02:26:15.697Z,99.54
2018-12-27T02:27:15.729Z,99.58
2018-12-27T02:28:15.665Z,99.90
2018-12-27T02:29:15.671Z,99.90
2018-12-27T02:30:15.673Z,99.99
2018-12-27T02:31:15.658Z,99.99
2018-12-27T02:32:15.625Z,99.69
2018-12-27T02:33:15.611Z,99.99
2018-12-27T02:34:15.598Z,99.69
2018-12-27T02:35:15.610Z,99.99
2018-12-27T02:36:15.622Z,99.99
2018-12-27T02:37:15.585Z,99.99
2018-12-27T02:38:15.555Z,99.99
2018-12-27T02:39:15.545Z,99.99
2018-12-27T02:40:15.541Z,99.99
2018-12-27T02:41:15.543Z,99.27
2018-12-27T02:42:15.517Z,99.99
2018-12-27T02:43:15.527Z,99.99
2018-12-27T02:44:15.498Z,99.99
2018-12-27T02:45:15.494Z,99.99
2018-12-27T02:46:15.502Z,99.99
2018-12-27T02:47:15.468Z,99.99
2018-12-27T02:48:15.464Z,99.99
2018-12-27T02:49:15.440Z,99.99
2018-12-27T02:50:15.431Z,99.99
2018-12-27T02:51:15.446Z,99.99
2018-12-27T02:52:15.419Z,99.99
2018-12-27T02:53:15.409Z,99.99
2018-12-27T02:54:15.419Z,99.99
2018-12-27T02:55:15.383Z,99.99
2018-12-27T02:56:15.427Z,99.99
2018-12-27T02:57:15.363Z,99.99
2018-12-27T02:58:15.352Z,99.99
2018-12-27T02:59:15.343Z,99.99
2018-12-27T03:00:15.339Z,99.99
2018-12-27T03:01:15.322Z,99.99
2018-12-27T03:02:15.376Z,99.99
2018-12-27T03:03:15.297Z,99.99
2018-12-27T03:04:15.335Z,99.99
2018-12-27T03:05:15.287Z,99.99
2018-12-27T03:06:15.265Z,99.79
2018-12-27T03:07:15.266Z,99.79
2018-12-27T03:08:15.248Z,99.79
2018-12-27T03:09:15.267Z,99.99
2018-12-27T03:10:15.222Z,99.99
2018-12-27T03:11:15.227Z,99.99
2018-12-27T03:12:15.235Z,99.99
2018-12-27T03:13:15.190Z,99.99
2018-12-27T03:14:15.182Z,99.99
2018-12-27T03:15:15.173Z,99.99
2018-12-27T03:16:15.164Z,99.99
2018-12-27T03:17:15.164Z,99.99
2018-12-27T03:18:15.140Z,99.99
2018-12-27T03:19:15.158Z,99.99
2018-12-27T03:20:15.150Z,99.99
2018-12-27T03:21:15.141Z,99.99
2018-12-27T03:22:15.110Z,99.99
2018-12-27T03:23:15.087Z,99.99
2018-12-27T03:24:15.074Z,99.99
2018-12-27T03:25:15.081Z,99.99
2018-12-27T03:26:15.092Z,99.99
2018-12-27T03:27:15.067Z,99.99
2018-12-27T03:28:15.062Z,99.99
2018-12-27T03:29:15.021Z,99.99
2018-12-27T03:30:15.039Z,99.99
2018-12-27T03:31:15.029Z,99.99
2018-12-27T03:32:15.016Z,99.99
2018-12-27T03:33:14.982Z,99.99
2018-12-27T03:34:14.988Z,99.99
2018-12-27T03:35:14.978Z,99.99
2018-12-27T03:36:14.952Z,99.99
2018-12-27T03:37:14.951Z,99.99
2018-12-27T03:38:14.935Z,99.99
2018-12-27T03:39:14.917Z,99.99
2018-12-27T03:40:14.905Z,99.99
2018-12-27T03:41:14.901Z,99.99
2018-12-27T03:42:14.902Z,99.99
2018-12-27T03:43:14.903Z,99.99
2018-12-27T03:44:14.893Z,99.99
2018-12-27T03:45:14.856Z,99.99
2018-12-27T03:46:14.848Z,99.99
2018-12-27T03:47:14.850Z,99.99
2018-12-27T03:48:14.820Z,99.99
2018-12-27T03:49:14.850Z,99.99
2018-12-27T03:50:14.805Z,99.99
2018-12-27T03:51:14.789Z,99.99
2018-12-27T03:52:14.856Z,99.99
2018-12-27T03:53:14.768Z,99.99
2018-12-27T03:54:14.768Z,99.99
2018-12-27T03:55:14.750Z,99.99
2018-12-27T03:56:14.740Z,99.99
2018-12-27T03:57:14.802Z,99.99
2018-12-27T03:58:14.717Z,99.99
2018-12-27T03:59:14.713Z,99.99
2018-12-27T04:00:14.761Z,99.99
2018-12-27T04:01:14.688Z,99.99
2018-12-27T04:02:14.696Z,99.99
2018-12-27T04:03:14.663Z,99.99
2018-12-27T04:04:14.655Z,99.99
2018-12-27T04:05:14.651Z,99.99
2018-12-27T04:06:14.632Z,99.99
2018-12-27T04:07:14.673Z,99.99
2018-12-27T04:08:14.621Z,99.99
2018-12-27T04:09:14.607Z,99.99
2018-12-27T04:10:14.591Z,99.99
2018-12-27T04:11:14.582Z,99.99
2018-12-27T04:12:14.585Z,99.99
2018-12-27T04:13:14.562Z,99.99
2018-12-27T04:14:14.551Z,99.99
2018-12-27T04:15:14.551Z,99.99
2018-12-27T04:16:14.531Z,99.99
2018-12-27T04:17:14.548Z,99.99
2018-12-27T04:18:14.506Z,99.99
2018-12-27T04:19:14.495Z,99.99
2018-12-27T04:20:14.492Z,99.99
2018-12-27T04:21:14.476Z,99.99
2018-12-27T04:22:14.470Z,99.99
2018-12-27T04:23:14.496Z,99.99
2018-12-27T04:24:14.451Z,99.99
2018-12-27T04:25:14.434Z,99.99
2018-12-27T04:26:14.426Z,99.99
2018-12-27T04:27:14.414Z,99.99
2018-12-27T04:28:14.421Z,99.99
2018-12-27T04:29:14.399Z,99.99
2018-12-27T04:30:14.386Z,99.99
2018-12-27T04:31:14.411Z,99.99
2018-12-27T04:32:14.378Z,99.99
2018-12-27T04:33:14.378Z,99.99
2018-12-27T04:34:14.342Z,99.99
2018-12-27T04:35:14.333Z,99.99
2018-12-27T04:36:14.327Z,99.93
2018-12-27T04:37:14.320Z,99.99
2018-12-27T04:38:14.314Z,99.99
2018-12-27T04:39:14.287Z,99.99
2018-12-27T04:40:14.277Z,99.99
2018-12-27T04:41:14.265Z,99.99
2018-12-27T04:42:14.260Z,99.99
2018-12-27T04:43:14.281Z,99.99
2018-12-27T04:44:14.251Z,99.99
2018-12-27T04:45:14.224Z,99.99
2018-12-27T04:46:14.217Z,99.99
2018-12-27T04:47:14.237Z,99.99
2018-12-27T04:48:14.205Z,99.99
2018-12-27T04:49:14.182Z,99.99
2018-12-27T04:50:14.173Z,99.99
2018-12-27T04:51:14.161Z,99.99
2018-12-27T04:52:14.164Z,99.99
2018-12-27T04:53:14.157Z,99.99
2018-12-27T04:54:14.133Z,99.99
2018-12-27T04:55:14.160Z,99.99
2018-12-27T04:56:14.119Z,99.99
2018-12-27T04:57:14.128Z,99.99
2018-12-27T04:58:14.108Z,99.99
2018-12-27T04:59:14.077Z,99.99
2018-12-27T05:00:14.085Z,99.99
2018-12-27T05:01:14.059Z,99.99
2018-12-27T05:02:14.087Z,99.99
2018-12-27T05:03:14.093Z,99.99
2018-12-27T05:04:18.012Z,99.99
2018-12-27T05:05:14.018Z,99.99
2018-12-27T05:06:14.017Z,99.99
2018-12-27T05:07:13.996Z,99.99
2018-12-27T05:08:14.001Z,99.99
2018-12-27T05:09:13.978Z,99.99
2018-12-27T05:10:13.963Z,99.99
2018-12-27T05:11:13.991Z,99.99
2018-12-27T05:12:13.943Z,99.99
2018-12-27T05:13:13.984Z,99.99
2018-12-27T05:14:13.922Z,99.99
2018-12-27T05:15:13.928Z,99.99
2018-12-27T05:16:13.904Z,99.99
2018-12-27T05:17:13.889Z,99.99
2018-12-27T05:18:13.927Z,99.99
2018-12-27T05:19:13.898Z,99.99
2018-12-27T05:20:13.859Z,99.99
2018-12-27T05:21:13.871Z,99.99
2018-12-27T05:22:13.837Z,99.99
2018-12-27T05:23:13.848Z,99.99
2018-12-27T05:24:13.815Z,99.99
2018-12-27T05:25:13.841Z,99.99
2018-12-27T05:26:13.848Z,99.99
2018-12-27T05:27:13.791Z,99.99
2018-12-27T05:28:13.790Z,99.99
2018-12-27T05:29:13.766Z,99.99
2018-12-27T05:30:13.766Z,99.99
2018-12-27T05:31:13.765Z,99.99
2018-12-27T05:32:13.732Z,99.99
2018-12-27T05:33:13.793Z,99.99
2018-12-27T05:34:13.713Z,99.99
2018-12-27T05:35:13.709Z,99.99
2018-12-27T05:36:13.689Z,99.99
2018-12-27T05:37:13.677Z,99.99
2018-12-27T05:38:13.686Z,99.99
2018-12-27T05:39:13.660Z,99.99
2018-12-27T05:40:13.646Z,99.99
2018-12-27T05:41:13.639Z,99.99
2018-12-27T05:42:13.686Z,99.99
2018-12-27T05:43:13.666Z,99.99
2018-12-27T05:44:13.606Z,99.99
2018-12-27T05:45:13.601Z,99.99
2018-12-27T05:46:13.603Z,99.99
2018-12-27T05:47:13.573Z,99.99
2018-12-27T05:48:13.565Z,99.99
2018-12-27T05:49:13.577Z,99.99
2018-12-27T05:50:13.560Z,99.99
2018-12-27T05:51:13.533Z,99.99
2018-12-27T05:52:13.520Z,99.99
2018-12-27T05:53:13.556Z,99.99
2018-12-27T05:54:13.519Z,99.99
2018-12-27T05:55:13.508Z,99.99
2018-12-27T05:56:13.530Z,99.99
2018-12-27T05:57:13.467Z,99.99
2018-12-27T05:58:13.472Z,99.99
2018-12-27T05:59:13.471Z,99.99
2018-12-27T06:00:13.443Z,99.99
2018-12-27T06:01:13.474Z,99.99
2018-12-27T06:02:13.465Z,99.99
2018-12-27T06:03:13.411Z,99.99
2018-12-27T06:04:13.411Z,99.99
2018-12-27T06:05:13.400Z,99.99
2018-12-27T06:06:13.401Z,99.99
2018-12-27T06:07:13.371Z,99.99
2018-12-27T06:08:13.352Z,99.99
2018-12-27T06:09:13.355Z,99.99
2018-12-27T06:10:13.333Z,99.99
2018-12-27T06:11:13.321Z,99.99
2018-12-27T06:12:13.355Z,99.99
2018-12-27T06:13:13.306Z,99.99
2018-12-27T06:14:13.304Z,99.99
2018-12-27T06:15:13.281Z,99.99
2018-12-27T06:16:13.268Z,99.93
2018-12-27T06:17:13.257Z,99.99
2018-12-27T06:18:13.253Z,99.93
2018-12-27T06:19:13.286Z,99.72
2018-12-27T06:20:13.225Z,99.30
2018-12-27T06:21:13.223Z,99.82
2018-12-27T06:22:13.205Z,99.93
2018-12-27T06:23:13.198Z,99.99
2018-12-27T06:24:13.203Z,99.99
2018-12-27T06:25:13.204Z,99.99
2018-12-27T06:26:13.165Z,99.99
2018-12-27T06:27:13.153Z,99.99
2018-12-27T06:28:13.161Z,99.99
2018-12-27T06:29:13.151Z,99.99
2018-12-27T06:30:13.121Z,99.99
2018-12-27T06:31:13.129Z,99.99
2018-12-27T06:32:13.125Z,99.99
2018-12-27T06:33:13.091Z,99.99
2018-12-27T06:34:13.092Z,99.93
2018-12-27T06:35:13.070Z,99.99
2018-12-27T06:36:13.057Z,99.99
2018-12-27T06:37:13.065Z,99.99
2018-12-27T06:38:13.038Z,99.99
2018-12-27T06:39:13.042Z,99.99
2018-12-27T06:40:13.041Z,99.99
2018-12-27T06:41:13.040Z,99.99
2018-12-27T06:42:12.997Z,99.99
2018-12-27T06:43:13.003Z,99.99
2018-12-27T06:44:12.981Z,99.99
2018-12-27T06:45:12.983Z,99.99
2018-12-27T06:46:12.952Z,99.99
2018-12-27T06:47:12.944Z,99.99
2018-12-27T06:48:12.930Z,99.99
2018-12-27T06:49:12.924Z,99.99
2018-12-27T06:50:12.958Z,99.99
2018-12-27T06:51:12.909Z,99.99
2018-12-27T06:52:12.912Z,99.99
2018-12-27T06:53:12.884Z,99.99
2018-12-27T06:54:12.871Z,99.99
2018-12-27T06:55:12.871Z,99.99
2018-12-27T06:56:12.854Z,99.99
2018-12-27T06:57:12.840Z,99.99
2018-12-27T06:58:12.841Z,99.99
2018-12-27T06:59:12.839Z,99.99
2018-12-27T07:00:12.818Z,99.99
2018-12-27T07:01:12.806Z,99.99
2018-12-27T07:02:12.784Z,99.99
2018-12-27T07:03:12.826Z,99.99
2018-12-27T07:04:12.793Z,99.99
2018-12-27T07:05:12.773Z,99.99
2018-12-27T07:06:12.745Z,99.99
2018-12-27T07:07:12.746Z,99.88
2018-12-27T07:08:12.722Z,99.99
2018-12-27T07:09:12.712Z,99.99
2018-12-27T07:10:12.715Z,99.99
2018-12-27T07:11:12.689Z,99.99
2018-12-27T07:12:12.717Z,99.99
2018-12-27T07:13:12.676Z,99.93
2018-12-27T07:14:12.677Z,99.99
2018-12-27T07:15:12.671Z,99.99
2018-12-27T07:16:12.667Z,99.99
2018-12-27T07:17:12.636Z,99.99
2018-12-27T07:18:12.615Z,99.99
2018-12-27T07:19:12.608Z,99.99
2018-12-27T07:20:12.618Z,99.99
2018-12-27T07:21:12.591Z,99.88
2018-12-27T07:22:12.607Z,99.99
2018-12-27T07:23:12.563Z,99.93
2018-12-27T07:24:12.554Z,99.93
2018-12-27T07:25:12.557Z,99.99
2018-12-27T07:26:12.563Z,99.99
2018-12-27T07:27:12.551Z,99.99
2018-12-27T07:28:12.514Z,99.99
2018-12-27T07:29:12.532Z,99.99
2018-12-27T07:30:12.508Z,99.99
2018-12-27T07:31:12.514Z,99.99
2018-12-27T07:32:12.475Z,99.99
2018-12-27T07:33:12.480Z,99.88
2018-12-27T07:34:12.459Z,99.93
2018-12-27T07:35:12.475Z,99.78
2018-12-27T07:36:12.472Z,99.99
2018-12-27T07:37:12.424Z,99.99
2018-12-27T07:38:12.406Z,99.78
2018-12-27T07:39:12.397Z,99.40
2018-12-27T07:40:12.395Z,99.46
2018-12-27T07:41:12.389Z,99.82
2018-12-27T07:42:12.395Z,99.40
2018-12-27T07:43:12.353Z,99.15
2018-12-27T07:44:12.354Z,99.51
2018-12-27T07:45:12.376Z,99.46
2018-12-27T07:46:12.337Z,99.57
2018-12-27T07:47:12.323Z,99.57
2018-12-27T07:48:12.301Z,99.40
2018-12-27T07:49:12.332Z,99.25
2018-12-27T07:50:12.282Z,99.15
2018-12-27T07:51:12.308Z,98.98
2018-12-27T07:52:12.257Z,99.08
2018-12-27T07:53:12.301Z,99.25
2018-12-27T07:54:12.242Z,99.04
2018-12-27T07:55:12.235Z,99.15
2018-12-27T07:56:12.232Z,99.15
2018-12-27T07:57:12.210Z,98.98
2018-12-27T07:58:12.196Z,98.94
2018-12-27T07:59:12.203Z,99.61
2018-12-27T08:00:12.188Z,98.88
2018-12-27T08:01:12.195Z,99.15
2018-12-27T08:02:12.179Z,98.94
2018-12-27T08:03:12.146Z,99.08
2018-12-27T08:04:12.146Z,98.62
2018-12-27T08:05:12.123Z,98.62
2018-12-27T08:06:12.166Z,98.94
2018-12-27T08:07:12.106Z,99.04
2018-12-27T08:08:12.090Z,98.98
2018-12-27T08:09:12.085Z,98.56
2018-12-27T08:10:12.072Z,98.77
2018-12-27T08:11:12.073Z,98.41
2018-12-27T08:12:12.092Z,98.30
2018-12-27T08:13:12.068Z,98.20
2018-12-27T08:14:12.034Z,98.62
2018-12-27T08:15:12.015Z,98.52
2018-12-27T08:16:12.060Z,98.94
2018-12-27T08:17:11.995Z,99.41
2018-12-27T08:18:11.985Z,98.47
2018-12-27T08:19:11.978Z,98.58
2018-12-27T08:20:11.971Z,98.79
2018-12-27T08:21:11.979Z,98.36
2018-12-27T08:22:11.943Z,98.79
2018-12-27T08:23:11.968Z,98.79
2018-12-27T08:24:11.952Z,98.36
2018-12-27T08:25:11.914Z,97.74
2018-12-27T08:26:11.924Z,97.84
2018-12-27T08:27:11.959Z,98.05
2018-12-27T08:28:11.879Z,98.22
2018-12-27T08:29:11.871Z,98.11
2018-12-27T08:30:11.868Z,97.90
2018-12-27T08:31:12.164Z,97.48
2018-12-27T08:32:11.854Z,97.69
2018-12-27T08:33:11.836Z,97.42
2018-12-27T08:34:11.818Z,96.95
2018-12-27T08:35:11.887Z,97.53
2018-12-27T08:36:11.812Z,97.48
2018-12-27T08:37:11.829Z,97.80
2018-12-27T08:38:11.777Z,97.38
2018-12-27T08:39:11.766Z,97.17
2018-12-27T08:40:11.760Z,97.48
2018-12-27T08:41:11.771Z,98.05
2018-12-27T08:42:12.659Z,98.22
2018-12-27T08:43:11.725Z,97.90
2018-12-27T08:44:11.750Z,98.00
2018-12-27T08:45:11.701Z,97.90
2018-12-27T08:46:11.692Z,98.17
2018-12-27T08:47:11.698Z,97.75
2018-12-27T08:48:11.671Z,98.07
2018-12-27T08:49:11.667Z,96.70
2018-12-27T08:50:11.671Z,96.81
2018-12-27T08:51:11.639Z,96.81
2018-12-27T08:52:11.646Z,96.81
2018-12-27T08:53:11.621Z,96.91
2018-12-27T08:54:11.627Z,95.86
2018-12-27T08:55:11.597Z,95.97
2018-12-27T08:56:11.650Z,96.07
2018-12-27T08:57:11.616Z,96.43
2018-12-27T08:58:11.580Z,96.01
2018-12-27T08:59:11.574Z,96.33
2018-12-27T09:00:11.545Z,96.53
2018-12-27T09:01:11.541Z,96.75
2018-12-27T09:02:11.538Z,97.12
2018-12-27T09:03:11.515Z,96.91
2018-12-27T09:04:11.505Z,95.86
2018-12-27T09:05:18.670Z,96.28
2018-12-27T09:06:12.479Z,95.76
2018-12-27T09:07:11.488Z,95.54
2018-12-27T09:08:11.474Z,96.07
2018-12-27T09:09:11.453Z,96.07
2018-12-27T09:10:11.439Z,96.03
2018-12-27T09:11:11.429Z,95.61
2018-12-27T09:12:11.451Z,95.82
2018-12-27T09:13:11.407Z,95.50
2018-12-27T09:14:11.401Z,95.40
2018-12-27T09:15:11.418Z,95.82
2018-12-27T09:16:11.381Z,95.44
2018-12-27T09:17:11.381Z,95.61
2018-12-27T09:18:11.354Z,95.72
2018-12-27T09:19:11.343Z,94.67
2018-12-27T09:20:11.336Z,94.29
2018-12-27T09:21:11.360Z,95.13
2018-12-27T09:22:11.343Z,95.44
2018-12-27T09:23:11.303Z,95.02
2018-12-27T09:24:11.297Z,95.44
2018-12-27T09:25:11.283Z,95.65
2018-12-27T09:26:11.296Z,94.60
2018-12-27T09:27:11.290Z,94.71
2018-12-27T09:28:11.257Z,94.92
2018-12-27T09:29:11.294Z,95.40
2018-12-27T09:30:11.228Z,95.08
2018-12-27T09:31:11.218Z,94.98
2018-12-27T09:32:11.256Z,94.77
2018-12-27T09:33:11.214Z,94.29
2018-12-27T09:34:11.192Z,94.49
2018-12-27T09:35:11.194Z,95.44
2018-12-27T09:36:11.201Z,95.82
2018-12-27T09:37:11.177Z,96.24
2018-12-27T09:38:11.163Z,96.24
2018-12-27T09:39:11.134Z,95.67
2018-12-27T09:40:11.152Z,95.46
2018-12-27T09:41:11.133Z,95.67
2018-12-27T09:42:11.104Z,94.62
2018-12-27T09:43:11.113Z,93.99
2018-12-27T09:44:11.102Z,94.20
2018-12-27T09:45:11.101Z,93.99
2018-12-27T09:46:11.078Z,93.47
2018-12-27T09:47:11.050Z,94.31
2018-12-27T09:48:11.055Z,94.20
2018-12-27T09:49:11.031Z,93.88
2018-12-27T09:50:11.025Z,94.20
2018-12-27T09:51:11.010Z,93.68
2018-12-27T09:52:11.026Z,93.88
2018-12-27T09:53:11.002Z,93.68
2018-12-27T09:54:10.978Z,94.10
2018-12-27T09:55:10.977Z,93.95
2018-12-27T09:56:10.966Z,93.53
2018-12-27T09:57:10.946Z,93.17
2018-12-27T09:58:10.961Z,93.49
2018-12-27T09:59:10.935Z,92.69
2018-12-27T10:00:10.955Z,93.70
2018-12-27T10:01:10.905Z,92.58
2018-12-27T10:02:10.896Z,91.85
2018-12-27T10:03:10.908Z,92.69
2018-12-27T10:04:10.873Z,92.27
2018-12-27T10:05:10.891Z,92.69
2018-12-27T10:06:10.882Z,92.76
2018-12-27T10:07:10.847Z,92.13
2018-12-27T10:08:10.848Z,92.65
2018-12-27T10:09:10.820Z,91.98
2018-12-27T10:10:10.809Z,90.93
2018-12-27T10:11:10.802Z,90.83
2018-12-27T10:12:10.818Z,91.35
2018-12-27T10:13:10.797Z,92.04
2018-12-27T10:14:10.774Z,90.99
2018-12-27T10:15:10.763Z,89.32
2018-12-27T10:16:10.746Z,89.00
2018-12-27T10:17:10.762Z,89.42
2018-12-27T10:18:10.747Z,90.01
2018-12-27T10:19:10.719Z,89.07
2018-12-27T10:20:10.708Z,88.92
2018-12-27T10:21:10.713Z,88.61
2018-12-27T10:22:10.680Z,88.04
2018-12-27T10:23:10.684Z,86.37
2018-12-27T10:24:10.662Z,86.37
2018-12-27T10:25:10.683Z,86.16
2018-12-27T10:26:10.645Z,86.27
2018-12-27T10:27:10.633Z,87.52
2018-12-27T10:28:10.634Z,86.69
2018-12-27T10:29:10.607Z,86.06
2018-12-27T10:30:10.601Z,86.20
2018-12-27T10:31:10.617Z,86.31
2018-12-27T10:32:10.578Z,87.84
2018-12-27T10:33:10.586Z,86.85
2018-12-27T10:34:10.552Z,86.90
2018-12-27T10:35:10.543Z,86.41
2018-12-27T10:36:10.534Z,86.58
2018-12-27T10:37:10.533Z,87.77
2018-12-27T10:38:10.524Z,86.93
2018-12-27T10:39:10.499Z,87.84
2018-12-27T10:40:10.490Z,87.63
2018-12-27T10:41:10.480Z,87.80
2018-12-27T10:42:10.469Z,87.42
2018-12-27T10:43:10.472Z,87.04
2018-12-27T10:44:10.469Z,87.98
2018-12-27T10:45:10.444Z,88.44
2018-12-27T10:46:10.445Z,88.75
2018-12-27T10:47:10.417Z,89.22
2018-12-27T10:48:10.421Z,89.32
2018-12-27T10:49:10.397Z,89.78
2018-12-27T10:50:10.394Z,89.36
2018-12-27T10:51:10.373Z,90.58
2018-12-27T10:52:10.361Z,90.61
2018-12-27T10:53:10.442Z,90.41
2018-12-27T10:54:10.343Z,91.03
2018-12-27T10:55:10.330Z,91.14
2018-12-27T10:56:10.325Z,90.72
2018-12-27T10:57:10.324Z,91.08
2018-12-27T10:58:10.298Z,92.16
2018-12-27T10:59:10.301Z,92.65
2018-12-27T11:00:10.278Z,92.65
2018-12-27T11:01:10.286Z,92.29
2018-12-27T11:02:10.262Z,92.46
2018-12-27T11:03:10.319Z,92.52
2018-12-27T11:04:10.251Z,91.06
2018-12-27T11:05:10.227Z,89.59
2018-12-27T11:06:10.213Z,90.22
2018-12-27T11:07:10.203Z,90.22
2018-12-27T11:08:10.216Z,89.84
2018-12-27T11:09:10.201Z,89.59
2018-12-27T11:10:11.374Z,90.05
2018-12-27T11:11:10.159Z,89.48
2018-12-27T11:12:10.152Z,89.84
2018-12-27T11:13:10.140Z,90.36
2018-12-27T11:14:10.142Z,90.99
2018-12-27T11:15:10.145Z,90.84
2018-12-27T11:16:10.122Z,90.11
2018-12-27T11:17:10.098Z,89.65
2018-12-27T11:18:10.102Z,90.28
2018-12-27T11:19:10.102Z,89.99
2018-12-27T11:20:10.114Z,87.90
2018-12-27T11:21:10.053Z,88.64
2018-12-27T11:22:10.079Z,87.45
2018-12-27T11:23:10.060Z,87.30
2018-12-27T11:24:10.036Z,87.30
2018-12-27T11:25:10.017Z,86.15
2018-12-27T11:26:10.005Z,86.19
2018-12-27T11:27:09.990Z,87.10
2018-12-27T11:28:09.980Z,88.50
2018-12-27T11:29:10.028Z,89.03
2018-12-27T11:30:09.986Z,89.09
2018-12-27T11:31:09.952Z,90.20
2018-12-27T11:32:09.942Z,87.66
2018-12-27T11:33:09.934Z,88.50
2018-12-27T11:34:09.931Z,89.13
2018-12-27T11:35:09.940Z,88.88
2018-12-27T11:36:16.991Z,88.92
2018-12-27T11:37:10.896Z,88.71
2018-12-27T11:38:09.875Z,89.03
2018-12-27T11:39:09.903Z,88.78
2018-12-27T11:40:09.897Z,88.95
2018-12-27T11:41:09.847Z,88.36
2018-12-27T11:42:09.834Z,88.40
2018-12-27T11:43:09.860Z,88.82
2018-12-27T11:44:09.828Z,89.76
2018-12-27T11:45:09.804Z,90.18
2018-12-27T11:46:09.793Z,90.28
2018-12-27T11:47:09.777Z,90.28
2018-12-27T11:48:09.769Z,89.76
2018-12-27T11:49:09.876Z,88.92
2018-12-27T11:50:09.753Z,89.76
2018-12-27T11:51:09.741Z,89.23
2018-12-27T11:52:09.758Z,88.88
2018-12-27T11:53:09.722Z,89.93
2018-12-27T11:54:09.717Z,89.89
2018-12-27T11:55:09.695Z,89.07
2018-12-27T11:56:09.723Z,87.40
2018-12-27T11:57:09.680Z,86.54
2018-12-27T11:58:09.679Z,87.96
2018-12-27T11:59:09.734Z,88.42
2018-12-27T12:00:09.642Z,87.59
2018-12-27T12:01:09.629Z,87.59
2018-12-27T12:02:09.643Z,87.96
2018-12-27T12:03:09.653Z,88.01
2018-12-27T12:04:09.610Z,88.84
2018-12-27T12:05:09.587Z,88.80
2018-12-27T12:06:09.576Z,89.01
2018-12-27T12:07:09.565Z,88.84
2018-12-27T12:08:09.557Z,88.59
2018-12-27T12:09:09.592Z,89.11
2018-12-27T12:10:09.535Z,89.45
2018-12-27T12:11:09.524Z,88.51
2018-12-27T12:12:09.612Z,87.26
2018-12-27T12:13:09.528Z,87.30
2018-12-27T12:14:09.523Z,88.24
2018-12-27T12:15:09.489Z,88.03
2018-12-27T12:16:09.472Z,87.19
2018-12-27T12:17:09.461Z,87.51
2018-12-27T12:18:09.486Z,88.55
2018-12-27T12:19:09.451Z,88.76
2018-12-27T12:20:09.441Z,87.82
2018-12-27T12:21:09.420Z,88.24
2018-12-27T12:22:09.406Z,87.37
2018-12-27T12:23:09.435Z,87.47
2018-12-27T12:24:09.387Z,87.09
2018-12-27T12:25:09.404Z,87.82
2018-12-27T12:26:09.376Z,86.61
2018-12-27T12:27:09.380Z,87.34
2018-12-27T12:28:09.383Z,87.96
2018-12-27T12:29:09.360Z,88.01
2018-12-27T12:30:09.386Z,87.59
2018-12-27T12:31:09.323Z,88.01
2018-12-27T12:32:09.301Z,88.74
2018-12-27T12:33:09.317Z,89.84
2018-12-27T12:34:09.281Z,88.39
2018-12-27T12:35:09.285Z,88.39
2018-12-27T12:36:10.894Z,87.86
2018-12-27T12:37:14.033Z,87.59
2018-12-27T12:38:10.269Z,87.34
2018-12-27T12:39:09.239Z,88.90
2018-12-27T12:40:09.260Z,86.92
2018-12-27T12:41:09.209Z,88.01
2018-12-27T12:42:09.194Z,88.01
2018-12-27T12:43:09.186Z,88.74
2018-12-27T12:44:09.201Z,88.17
2018-12-27T12:45:09.185Z,88.95
2018-12-27T12:46:09.160Z,90.47
2018-12-27T12:47:09.177Z,88.87
2018-12-27T12:48:09.155Z,88.55
2018-12-27T12:49:09.168Z,87.86
2018-12-27T12:50:09.132Z,88.70
2018-12-27T12:51:09.185Z,88.28
2018-12-27T12:52:09.089Z,89.28